Wyocena, WI

12:39 PM CDT on July 25, 2016 (GMT -0500)
Haertel | | Change Station

Elev 810 ft 43.55 °N, 89.47 °W | Updated 2 minutes ago

Mostly Cloudy
Mostly Cloudy
82.9 °F
Feels Like 84 °F
N
3.7
Wind Variable Wind from NE

Today
High -- | Low -- °F
--% Chance of Precip.
Yesterday
High -- | Low -- °F
Precip. -- in
Pressure 30.04 in
Visibility 10.0 miles
Clouds Mostly Cloudy 4100 ft
Heat Index 84 °F
Dew Point 64 °F
Humidity 53%
Rainfall 0.00 in
Snow Depth Not available.
5:40 AM 8:26 PM
Waning Gibbous, 64% visible
METAR KDLL 251710Z AUTO 30007KT 10SM BKN041 26/16 A3004 RMK AO2 T02640163
Pressure 30.04 in
Visibility 10.0 miles
Clouds Mostly Cloudy 4100 ft
Heat Index 84 °F
Dew Point 64 °F
Humidity 53%
Rainfall 0.00 in
Snow Depth Not available.
5:40 AM 8:26 PM
Waning Gibbous, 64% visible
METAR KDLL 251710Z AUTO 30007KT 10SM BKN041 26/16 A3004 RMK AO2 T02640163

10-Day Weather Forecast

Almanac

Astronomy

Jul. 25, 2016 Rise Set
Actual Time
Civil Twilight
Nautical Twilight
Astronomical Twilight
Moon
Length of Visible Light
Length of Day
Tomorrow will be .
, % of the Moon is Illuminated

Today's Extremes

State Highs State Lows

Community

WunderPhotos

Upload Photos

1,927,363 photos uploaded!

WunderBlog® & News

Nearby

Air Quality

  Air Quality AQ Index Pollutant
Not available.

Snow Depth

Station Depth Elevation

Earthquake Activity

City Distance Mag. Time & Date
Minimum magnitude displayed is 2.5.

Coastal Water Temperatures

Place Temperature

Stations

Nearby Weather Stations

Station Location Temp. Windchill Dew Point Humidity Wind Precip. Elev Updated Type
                   

Watches & Warnings

There are currently no watches in effect.